Dades meteomassalio
Diari Summary for Febrer 5, 2017 Units:  Metric    English   Both
« Previous Day
Next Day »
Diari Semanal Mensual Anual Personalitzat
  Maxima: Minima: Mijana:
Temperatura: -17.8 °C -13.8 °C -12.5 °C
Rosada: -17.8 °C -17.8 °C -15.3 °C
Humitat: Humidity % 54 % 71 %
Velocitat del vent: 0 km/h 0 km/h 46 km/h
Racha vent: 0 km/h - -
Vent:- - SSE
Pressio: 0 hPa 34107.2 hPa -
Pluja: 109.22 mm    
Historical Graphs
 
 
Tabular Data for Febrer 5, 2017
Time Temperature Dew Point Pressure Wind Wind Speed Wind Gust Humidity Rainfall Rate (Hourly) solar Conditions
-17.8 °C -17.8 °C 0 hPa Calm     Humidity % 0 mm SolarRadiationWatts/m^2 W/m2 Conditions
00:03 -13.1 °C -13.8 °C 34222.3 hPa Calm     91 % 0 mm 0.0 W/m2 CLR
00:08 -13.1 °C -13.8 °C 34222.3 hPa Calm     91 % 0 mm 0.0 W/m2 CLR
00:13 -13.1 °C -13.8 °C 34222.3 hPa Calm     91 % 0 mm 0.0 W/m2 CLR
00:18 -13.2 °C -13.9 °C 34222.3 hPa Calm     91 % 0 mm 0.0 W/m2 CLR
00:23 -13.2 °C -13.9 °C 34222.3 hPa Calm     91 % 0 mm 0.0 W/m2 CLR
00:28 -13.2 °C -13.9 °C 34222.3 hPa Calm     91 % 0 mm 0.0 W/m2 CLR
00:33 -13.2 °C -14 °C 34222.3 hPa Calm     91 % 0 mm 0.0 W/m2 CLR
00:38 -13.2 °C -13.8 °C 34212.1 hPa Calm     92 % 0 mm 0.0 W/m2 CLR
00:43 -13.1 °C -13.8 °C 34212.1 hPa Calm     92 % 0 mm 0.0 W/m2 CLR
00:48 -13.2 °C -13.9 °C 34212.1 hPa Calm     91 % 0 mm 0.0 W/m2 CLR
00:53 -13.2 °C -14 °C 34212.1 hPa Calm     91 % 0 mm 0.0 W/m2 CLR
00:58 -13.2 °C -13.8 °C 34212.1 hPa Calm     92 % 0 mm 0.0 W/m2 CLR
01:03 -13.1 °C -13.8 °C 34212.1 hPa SW 20.9 km/h 20.9 km/h 92 % 0 mm 0.0 W/m2 CLR
01:08 -12.8 °C -13.5 °C 34198.6 hPa Calm     92 % 0 mm 0.0 W/m2 CLR
01:13 -12.6 °C -13.3 °C 34198.6 hPa WSW 23.8 km/h 23.8 km/h 91 % 0 mm 0.0 W/m2 CLR
01:18 -12 °C -13 °C 34198.6 hPa WSW 11.9 km/h 11.9 km/h 88 % 0 mm 0.0 W/m2 CLR
01:23 -11.6 °C -13.1 °C 34198.6 hPa WSW 15 km/h 15 km/h 84 % 0 mm 0.0 W/m2 CLR
01:28 -10.7 °C -12.8 °C 34188.4 hPa West 11.9 km/h 11.9 km/h 78 % 0 mm 0.0 W/m2 CLR
01:33 -10.1 °C -12.9 °C 34188.4 hPa West 15 km/h 15 km/h 72 % 0 mm 0.0 W/m2 CLR
01:38 -9.7 °C -12.9 °C 34188.4 hPa West 20.9 km/h 20.9 km/h 68 % 0 mm 0.0 W/m2 CLR
01:43 -9.6 °C -13 °C 34188.4 hPa WNW 15 km/h 15 km/h 66 % 0 mm 0.0 W/m2 CLR
01:48 -9.7 °C -13.1 °C 34188.4 hPa WNW 12.9 km/h 12.9 km/h 67 % 0 mm 0.0 W/m2 CLR
01:53 -9.8 °C -13.2 °C 34188.4 hPa WNW 9 km/h 9 km/h 67 % 0 mm 0.0 W/m2 CLR
01:58 -9.9 °C -13.3 °C 34178.3 hPa Calm     67 % 0 mm 0.0 W/m2 CLR
02:03 -9.8 °C -13.3 °C 34178.3 hPa Calm     66 % 0 mm 0.0 W/m2 CLR
02:08 -10.1 °C -13.2 °C 34178.3 hPa Calm     69 % 0 mm 0.0 W/m2 CLR
02:13 -10.5 °C -13.4 °C 34178.3 hPa Calm     71 % 0 mm 0.0 W/m2 CLR
02:18 -10.7 °C -13.4 °C 34178.3 hPa Calm     72 % 0 mm 0.0 W/m2 CLR
02:23 -10.8 °C -13.4 °C 34178.3 hPa Calm     73 % 0 mm 0.0 W/m2 CLR
02:28 -10.8 °C -13.3 °C 34178.3 hPa Calm     74 % 0 mm 0.0 W/m2 CLR
02:33 -10.9 °C -13.4 °C 34178.3 hPa Calm     74 % 0 mm 0.0 W/m2 CLR
02:38 -10.9 °C -13.4 °C 34178.3 hPa Calm     75 % 0 mm 0.0 W/m2 CLR
02:43 -10.9 °C -13.4 °C 34178.3 hPa Calm     75 % 0 mm 0.0 W/m2 CLR
02:48 -10.9 °C -13.3 °C 34164.7 hPa Calm     75 % 0 mm 0.0 W/m2 CLR
02:53 -11.1 °C -13.4 °C 34164.7 hPa Calm     75 % 0 mm 0.0 W/m2 CLR
02:58 -11.1 °C -13.3 °C 34164.7 hPa Calm     76 % 0 mm 0.0 W/m2 CLR
03:03 -10.9 °C -13.3 °C 34154.6 hPa Calm     75 % 0 mm 0.0 W/m2 CLR
03:08 -10.9 °C -13.3 °C 34154.6 hPa Calm     75 % 0 mm 0.0 W/m2 CLR
03:13 -11 °C -13.4 °C 34154.6 hPa East 11.9 km/h 11.9 km/h 75 % 0 mm 0.0 W/m2 CLR
03:18 -11.2 °C -13.4 °C 34154.6 hPa Calm     77 % 0 mm 0.0 W/m2 CLR
03:23 -11.2 °C -13.4 °C 34144.4 hPa Calm     77 % 0 mm 0.0 W/m2 CLR
03:28 -11.2 °C -13.3 °C 34144.4 hPa Calm     77 % 0 mm 0.0 W/m2 CLR
03:33 -11.3 °C -13.5 °C 34144.4 hPa Calm     77 % 0 mm 0.0 W/m2 CLR
03:38 -11.4 °C -13.4 °C 34144.4 hPa Calm     79 % 0 mm 0.0 W/m2 CLR
03:43 -11.6 °C -13.4 °C 34130.9 hPa Calm     80 % 0 mm 0.0 W/m2 CLR
03:48 -11.7 °C -13.4 °C 34130.9 hPa Calm     81 % 0 mm 0.0 W/m2 CLR
03:53 -11.7 °C -13.4 °C 34130.9 hPa Calm     81 % 0 mm 0.0 W/m2 CLR
03:58 -11.8 °C -13.5 °C 34130.9 hPa Calm     81 % 0 mm 0.0 W/m2 CLR
04:03 -11.9 °C -13.6 °C 34130.9 hPa Calm     81 % 0 mm 0.0 W/m2 CLR
04:08 -12.1 °C -13.7 °C 34130.9 hPa Calm     82 % 0 mm 0.0 W/m2 CLR
04:13 -12.2 °C -13.7 °C 34130.9 hPa Calm     83 % 0 mm 0.0 W/m2 CLR
04:18 -12.3 °C -13.7 °C 34130.9 hPa Calm     84 % 0 mm 0.0 W/m2 CLR
04:23 -12.3 °C -13.7 °C 34130.9 hPa Calm     84 % 0 mm 0.0 W/m2 CLR
04:28 -12.3 °C -13.8 °C 34130.9 hPa Calm     84 % 0 mm 0.0 W/m2 CLR
04:33 -12.4 °C -13.7 °C 34130.9 hPa Calm     86 % 0 mm 0.0 W/m2 CLR
04:38 -12.4 °C -13.6 °C 34130.9 hPa Calm     86 % 0 mm 0.0 W/m2 CLR
04:43 -12.4 °C -13.6 °C 34120.7 hPa Calm     86 % 0 mm 0.0 W/m2 CLR
04:48 -12.4 °C -13.8 °C 34130.9 hPa Calm     85 % 0 mm 0.0 W/m2 CLR
04:53 -12.5 °C -13.7 °C 34120.7 hPa Calm     86 % 0 mm 0.0 W/m2 CLR
04:58 -12.5 °C -13.8 °C 34120.7 hPa Calm     85 % 0 mm 0.0 W/m2 CLR
05:03 -12.5 °C -13.7 °C 34120.7 hPa Calm     86 % 0 mm 0.0 W/m2 CLR
05:09 -12.3 °C -13.6 °C 34120.7 hPa Calm   2.3 km/h 86 % 0 mm 0.0 W/m2 CLR
05:14 -12.3 °C -13.6 °C 34120.7 hPa Calm     85 % 0 mm 0.0 W/m2 CLR
05:19 -12.3 °C -13.7 °C 34120.7 hPa Calm     84 % 0 mm 0.0 W/m2 CLR
05:24 -12.4 °C -13.8 °C 34120.7 hPa Calm     84 % 0 mm 0.0 W/m2 CLR
05:29 -12.6 °C -13.8 °C 34120.7 hPa Calm     85 % 0 mm 0.0 W/m2 CLR
05:34 -12.6 °C -13.8 °C 34107.2 hPa Calm     86 % 0 mm 0.0 W/m2 CLR
05:39 -12.6 °C -13.8 °C 34107.2 hPa Calm     86 % 0 mm 0.0 W/m2 CLR
05:44 -12.7 °C -13.8 °C 34107.2 hPa Calm     87 % 7.62 mm 0.0 W/m2 RA
05:49 -12.7 °C -13.7 °C 34120.7 hPa Calm     88 % 7.62 mm 0.0 W/m2
05:54 -12.7 °C -13.7 °C 34130.9 hPa Calm     88 % 12.7 mm 0.0 W/m2 RA
05:59 -12.6 °C -13.6 °C 34130.9 hPa West 20.9 km/h 20.9 km/h 89 % 20.32 mm 0.0 W/m2 RA
06:04 -11.9 °C -13 °C 34178.3 hPa NW 89.3 km/h 89.3 km/h 87 % 45.72 mm 0.0 W/m2 RA
06:09 -12 °C -13.1 °C 34178.3 hPa NNW 56.6 km/h 56.6 km/h 87 % 58.42 mm 0.0 W/m2 RA
06:14 -12.1 °C -13.2 °C 34178.3 hPa NNW 77.4 km/h 77.4 km/h 87 % 58.42 mm 0.0 W/m2 RA
06:19 -12.2 °C -13.4 °C 34178.3 hPa NW 77.4 km/h 77.4 km/h 87 % 63.5 mm 0.0 W/m2 RA
06:24 -12.3 °C -13.4 °C 34164.7 hPa NW 50.7 km/h 50.7 km/h 87 % 71.12 mm 0.0 W/m2 RA
06:29 -12.4 °C -13.4 °C 34164.7 hPa NW 46.7 km/h 46.7 km/h 88 % 71.12 mm 0.0 W/m2
06:34 -12.4 °C -13.4 °C 34164.7 hPa NW 44.7 km/h 44.7 km/h 88 % 76.2 mm 0.0 W/m2 RA
06:39 -12.4 °C -13.4 °C 34154.6 hPa WNW 29.8 km/h 29.8 km/h 88 % 76.2 mm 0.0 W/m2 CLR
06:44 -12.3 °C -13.4 °C 34130.9 hPa WNW 23.8 km/h 23.8 km/h 88 % 71.12 mm 0.0 W/m2 CLR
06:49 -12.2 °C -13.4 °C 34154.6 hPa West 35.7 km/h 35.7 km/h 86 % 71.12 mm 0.0 W/m2 CLR
06:54 -12.1 °C -13.4 °C 34144.4 hPa West 17.9 km/h 17.9 km/h 85 % 63.5 mm 0.0 W/m2 CLR
06:59 -12 °C -13.3 °C 34144.4 hPa WSW 17.9 km/h 17.9 km/h 85 % 58.42 mm 0.0 W/m2 CLR
07:04 -12.2 °C -13.4 °C 34144.4 hPa SW 20.9 km/h 20.9 km/h 86 % 33.02 mm 0.0 W/m2 CLR
07:09 -12.3 °C -13.4 °C 34144.4 hPa SW 12.9 km/h 12.9 km/h 87 % 20.32 mm 0.0 W/m2 CLR
07:14 -12.4 °C -13.4 °C 34144.4 hPa WSW 15 km/h 15 km/h 88 % 12.7 mm 0.0 W/m2 CLR
07:19 -12.3 °C -13.4 °C 34144.4 hPa WSW 17.9 km/h 17.9 km/h 88 % 12.7 mm 0.0 W/m2 CLR
07:24 -12.3 °C -13.4 °C 34144.4 hPa West 15 km/h 15 km/h 87 % 7.62 mm 0.0 W/m2 CLR
07:29 -12.2 °C -13.4 °C 34130.9 hPa WSW 11.9 km/h 11.9 km/h 87 % 7.62 mm 0.0 W/m2 CLR
07:34 -12.2 °C -13.4 °C 34130.9 hPa WSW 9 km/h 9 km/h 87 % 0 mm 0.0 W/m2 CLR
07:39 -12.3 °C -13.4 °C 34144.4 hPa WSW 11.9 km/h 11.9 km/h 87 % 0 mm 0.0 W/m2 CLR
07:44 -12.3 °C -13.4 °C 34144.4 hPa WSW 11.9 km/h 11.9 km/h 88 % 0 mm 0.0 W/m2 CLR
07:49 -12.4 °C -13.5 °C 34144.4 hPa WSW 10.3 km/h 10.3 km/h 88 % 0 mm 0.0 W/m2 CLR
07:54 -12.6 °C -13.6 °C 34144.4 hPa SW 11.9 km/h 11.9 km/h 89 % 0 mm 0.0 W/m2 CLR
07:59 -12.7 °C -13.7 °C 34144.4 hPa SW 9 km/h 9 km/h 89 % 0 mm 0.0 W/m2 CLR
08:04 -12.8 °C -13.7 °C 34144.4 hPa WSW 9 km/h 9 km/h 90 % 0 mm 0.0 W/m2 OVC
08:09 -12.8 °C -13.6 °C 34144.4 hPa WSW 10.3 km/h 10.3 km/h 91 % 0 mm 0.0 W/m2 OVC
08:14 -12.8 °C -13.7 °C 34144.4 hPa WSW 18.2 km/h 18.2 km/h 90 % 0 mm 0.0 W/m2 OVC
08:19 -12.6 °C -13.6 °C 34144.4 hPa WSW 20.9 km/h 20.9 km/h 89 % 0 mm 0.0 W/m2 OVC
08:24 -12.4 °C -13.5 °C 34144.4 hPa WSW 18.2 km/h 18.2 km/h 87 % 0 mm 11.0 W/m2 BKN
08:29 -12.3 °C -13.6 °C 34144.4 hPa WSW 20.9 km/h 20.9 km/h 85 % 0 mm 28.0 W/m2 BKN
08:34 -12.2 °C -13.6 °C 34144.4 hPa WSW 15 km/h 15 km/h 84 % 7.62 mm 28.0 W/m2 RA
08:39 -12.1 °C -13.7 °C 34154.6 hPa WSW 20.9 km/h 20.9 km/h 83 % 7.62 mm 7.0 W/m2 BKN
08:44 -11.8 °C -13.9 °C 34188.4 hPa ENE 92.4 km/h 92.4 km/h 77 % 7.62 mm 0.0 W/m2 OVC
08:49 -11.9 °C -14.1 °C 34188.4 hPa ENE 68.6 km/h 68.6 km/h 77 % 12.7 mm 0.0 W/m2 RA
08:54 -12.6 °C -14.3 °C 34212.1 hPa ENE 77.4 km/h 77.4 km/h 81 % 12.7 mm 0.0 W/m2 RA
08:59 -13.1 °C -14.7 °C 34222.3 hPa ENE 59.5 km/h 59.5 km/h 82 % 25.4 mm 0.0 W/m2 RA
09:04 -13.2 °C -14.8 °C 34212.1 hPa ENE 68.6 km/h 68.6 km/h 82 % 33.02 mm 0.0 W/m2 RA
09:09 -12.9 °C -14.8 °C 34212.1 hPa ENE 62.6 km/h 62.6 km/h 80 % 33.02 mm 12.0 W/m2
09:14 -13 °C -14.7 °C 34212.1 hPa ENE 46.7 km/h 46.7 km/h 81 % 33.02 mm 14.0 W/m2 BKN
09:19 -13 °C -14.7 °C 34212.1 hPa ENE 38.8 km/h 38.8 km/h 81 % 33.02 mm 39.0 W/m2 BKN
09:24 -13 °C -14.7 °C 34198.6 hPa ENE 29.8 km/h 29.8 km/h 81 % 33.02 mm 26.0 W/m2 BKN
09:29 -13 °C -14.7 °C 34212.1 hPa ENE 29.8 km/h 29.8 km/h 81 % 33.02 mm 39.0 W/m2 BKN
09:34 -13 °C -14.7 °C 34198.6 hPa ENE 9 km/h 9 km/h 81 % 25.4 mm 62.0 W/m2 BKN
09:39 -12.9 °C -14.6 °C 34198.6 hPa ENE 26.9 km/h 26.9 km/h 81 % 25.4 mm 100.0 W/m2 SCT
09:44 -12.8 °C -14.7 °C 34198.6 hPa ENE 50.7 km/h 50.7 km/h 79 % 25.4 mm 167.0 W/m2 FEW
09:49 -12.7 °C -14.7 °C 34198.6 hPa ENE 41.7 km/h 41.7 km/h 78 % 20.32 mm 128.0 W/m2 CLR
09:54 -12.7 °C -14.7 °C 34198.6 hPa ENE 41.7 km/h 41.7 km/h 78 % 12.7 mm 98.0 W/m2 CLR
09:59 -12.7 °C -14.7 °C 34198.6 hPa ENE 47.6 km/h 47.6 km/h 78 % 7.62 mm 120.0 W/m2 CLR
10:04 -12.6 °C -14.8 °C 34198.6 hPa ENE 56.6 km/h 56.6 km/h 76 % 0 mm 148.0 W/m2 CLR
10:09 -12.6 °C -14.9 °C 34198.6 hPa ENE 50.7 km/h 50.7 km/h 75 % 0 mm 172.0 W/m2 CLR
10:14 -12.6 °C -14.9 °C 34212.1 hPa ENE 44.7 km/h 44.7 km/h 75 % 0 mm 179.0 W/m2 CLR
10:19 -12.6 °C -15.1 °C 34212.1 hPa ENE 41.4 km/h 43 km/h 73 % 0 mm 142.0 W/m2 CLR
10:24 -12.6 °C -15.1 °C 34222.3 hPa ENE 44.7 km/h 44.7 km/h 73 % 0 mm 134.0 W/m2 CLR
10:29 -12.6 °C -15.1 °C 34222.3 hPa ENE 44.7 km/h 44.7 km/h 73 % 0 mm 130.0 W/m2 CLR
10:34 -12.5 °C -15.3 °C 34222.3 hPa ENE 53.6 km/h 53.6 km/h 71 % 0 mm 130.0 W/m2 CLR
10:39 -12.5 °C -15.4 °C 34212.1 hPa ENE 53.6 km/h 53.6 km/h 70 % 0 mm 148.0 W/m2 CLR
10:44 -12.5 °C -15.5 °C 34222.3 hPa ENE 44.7 km/h 44.7 km/h 69 % 0 mm 165.0 W/m2 CLR
10:49 -12.5 °C -15.5 °C 34212.1 hPa ENE 56.6 km/h 56.6 km/h 69 % 0 mm 178.0 W/m2 CLR
10:55 -12.4 °C -15.6 °C 34212.1 hPa ENE 62.6 km/h 62.6 km/h 68 % 0 mm 232.0 W/m2 CLR
11:00 -12.4 °C -15.6 °C 34212.1 hPa ENE 68.6 km/h 68.6 km/h 68 % 0 mm 257.0 W/m2 CLR
11:05 -12.4 °C -15.7 °C 34212.1 hPa ENE 77.4 km/h 77.4 km/h 67 % 0 mm 267.0 W/m2 CLR
11:10 -12.3 °C -15.4 °C 34212.1 hPa ENE 62.6 km/h 62.6 km/h 69 % 0 mm 341.0 W/m2 CLR
11:15 -12.2 °C -15.2 °C 34212.1 hPa ENE 64.7 km/h 64.7 km/h 69 % 0 mm 360.0 W/m2 CLR
11:20 -12.2 °C -15.4 °C 34222.3 hPa ENE 68.6 km/h 68.6 km/h 67 % 0 mm 237.0 W/m2 CLR
11:25 -12.3 °C -15.7 °C 34222.3 hPa ENE 104.3 km/h 104.3 km/h 66 % 0 mm 176.0 W/m2 CLR
11:30 -12.4 °C -15.7 °C 34212.1 hPa ENE 89.3 km/h 89.3 km/h 66 % 0 mm 162.0 W/m2 CLR
11:35 -12.3 °C -15.4 °C 34235.8 hPa ENE 62.6 km/h 62.6 km/h 68 % 0 mm 269.0 W/m2 CLR
11:40 -12.1 °C -15.4 °C 34222.3 hPa ENE 89.3 km/h 89.3 km/h 66 % 0 mm 506.0 W/m2 CLR
11:45 -12 °C -15.7 °C 34222.3 hPa ENE 101.2 km/h 101.2 km/h 63 % 0 mm 499.0 W/m2 CLR
11:50 -11.9 °C -15.5 °C 34235.8 hPa ENE 95.3 km/h 95.3 km/h 64 % 0 mm 499.0 W/m2 CLR
11:55 -11.8 °C -15.6 °C 34235.8 hPa ENE 98.3 km/h 98.3 km/h 63 % 0 mm 501.0 W/m2 CLR
12:00 -11.8 °C -15.7 °C 34235.8 hPa ENE 77.4 km/h 77.4 km/h 62 % 0 mm 508.0 W/m2 CLR
12:05 -11.8 °C -15.8 °C 34235.8 hPa ENE 92.4 km/h 92.4 km/h 61 % 0 mm 527.0 W/m2 CLR
12:10 -11.7 °C -15.7 °C 34246 hPa ENE 92.4 km/h 92.4 km/h 61 % 0 mm 541.0 W/m2 CLR
12:15 -11.6 °C -15.7 °C 34235.8 hPa ENE 71.5 km/h 71.5 km/h 61 % 0 mm 522.0 W/m2 CLR
12:20 -11.6 °C -15.7 °C 34235.8 hPa ENE 83.4 km/h 83.4 km/h 60 % 0 mm 540.0 W/m2 CLR
12:25 -11.6 °C -15.7 °C 34235.8 hPa ENE 89.3 km/h 89.3 km/h 60 % 0 mm 598.0 W/m2 CLR
12:30 -11.6 °C -15.8 °C 34235.8 hPa ENE 104.3 km/h 104.3 km/h 59 % 0 mm 592.0 W/m2 CLR
12:35 -11.4 °C -15.3 °C 34235.8 hPa ENE 44.7 km/h 44.7 km/h 62 % 0 mm 714.0 W/m2 CLR
12:40 -11.4 °C -15.7 °C 34235.8 hPa ENE 89.3 km/h 89.3 km/h 59 % 0 mm 174.0 W/m2 CLR
12:45 -11.7 °C -16.1 °C 34256.2 hPa ENE 74.5 km/h 74.5 km/h 58 % 0 mm 163.0 W/m2 CLR
12:50 -11.8 °C -16.5 °C 34256.2 hPa ENE 101.1 km/h 101.1 km/h 56 % 0 mm 171.0 W/m2 CLR
12:55 -12 °C -16.6 °C 34256.2 hPa ENE 77.7 km/h 77.7 km/h 57 % 0 mm 163.0 W/m2 CLR
13:00 -12 °C -16.5 °C 34256.2 hPa ENE 83.4 km/h 83.4 km/h 57 % 0 mm 144.0 W/m2 CLR
13:05 -11.9 °C -16.3 °C 34256.2 hPa ENE 68.6 km/h 68.6 km/h 58 % 0 mm 151.0 W/m2 CLR
13:10 -11.7 °C -16.3 °C 34256.2 hPa ENE 89.3 km/h 89.3 km/h 57 % 0 mm 568.0 W/m2 CLR
13:15 -11.5 °C -16.3 °C 34269.7 hPa ENE 89.3 km/h 89.3 km/h 55 % 0 mm 679.0 W/m2 CLR
13:20 -11.4 °C -16.4 °C 34269.7 hPa ENE 89.3 km/h 89.3 km/h 54 % 0 mm 327.0 W/m2 CLR
13:25 -11.6 °C -16.6 °C 34269.7 hPa ENE 68.6 km/h 68.6 km/h 54 % 0 mm 202.0 W/m2 CLR
13:30 -11.7 °C -16.6 °C 34269.7 hPa ENE 83.4 km/h 83.4 km/h 54 % 0 mm 125.0 W/m2 CLR
13:35 -11.8 °C -16.6 °C 34269.7 hPa ENE 64.7 km/h 64.7 km/h 55 % 0 mm 163.0 W/m2 CLR
13:40 -11.8 °C -16.4 °C 34269.7 hPa ENE 86.4 km/h 86.4 km/h 56 % 0 mm 105.0 W/m2 CLR
13:45 -11.8 °C -16.6 °C 34269.7 hPa ENE 98.3 km/h 98.3 km/h 56 % 0 mm 109.0 W/m2 CLR
13:50 -11.9 °C -16.4 °C 34269.7 hPa ENE 80.3 km/h 80.3 km/h 57 % 0 mm 174.0 W/m2 CLR
13:55 -11.9 °C -16.6 °C 34293.4 hPa ENE 107.2 km/h 107.2 km/h 56 % 0 mm 79.0 W/m2 CLR
14:00 -11.9 °C -16.4 °C 34279.9 hPa ENE 75.2 km/h 75.2 km/h 57 % 0 mm 127.0 W/m2 CLR
14:05 -11.9 °C -16.3 °C 34279.9 hPa ENE 68.6 km/h 68.6 km/h 58 % 0 mm 130.0 W/m2 CLR
14:10 -12 °C -16.6 °C 34293.4 hPa ENE 83.4 km/h 83.4 km/h 57 % 0 mm 155.0 W/m2 CLR
14:15 -12 °C -16.4 °C 34293.4 hPa ENE 80.5 km/h 80.5 km/h 58 % 0 mm 128.0 W/m2 CLR
14:20 -12 °C -16.3 °C 34293.4 hPa ENE 68.6 km/h 68.6 km/h 59 % 0 mm 223.0 W/m2 CLR
14:25 -12 °C -16.4 °C 34293.4 hPa ENE 57 km/h 57 km/h 58 % 0 mm 142.0 W/m2 CLR
14:30 -11.9 °C -16.2 °C 34279.9 hPa ENE 77.4 km/h 77.4 km/h 59 % 0 mm 176.0 W/m2 CLR
14:35 -11.8 °C -16.3 °C 34293.4 hPa ENE 68.6 km/h 68.6 km/h 58 % 0 mm 72.0 W/m2 CLR
14:40 -12 °C -16.2 °C 34303.6 hPa ENE 86.4 km/h 86.4 km/h 59 % 0 mm 121.0 W/m2 CLR
14:45 -12.2 °C -16.2 °C 34313.7 hPa ENE 89.3 km/h 89.3 km/h 61 % 0 mm 72.0 W/m2 CLR
14:50 -12.5 °C -16.3 °C 34313.7 hPa ENE 88 km/h 88 km/h 62 % 0 mm 65.0 W/m2 FEW
14:55 -12.7 °C -16.2 °C 34313.7 hPa ENE 86.4 km/h 86.4 km/h 65 % 0 mm 104.0 W/m2 FEW
15:00 -12.6 °C -16 °C 34327.3 hPa ENE 74.5 km/h 74.5 km/h 66 % 0 mm 199.0 W/m2 FEW
15:05 -12.5 °C -16.1 °C 34337.4 hPa ENE 71.5 km/h 71.5 km/h 64 % 0 mm 97.0 W/m2 CLR
15:10 -12.6 °C -16.1 °C 34337.4 hPa ENE 89.3 km/h 89.3 km/h 65 % 0 mm 62.0 W/m2 CLR
15:15 -12.8 °C -15.9 °C 34337.4 hPa ENE 68.6 km/h 68.6 km/h 68 % 0 mm 88.0 W/m2 FEW
15:20 -12.9 °C -15.8 °C 34337.4 hPa ENE 65.5 km/h 65.5 km/h 70 % 0 mm 120.0 W/m2 FEW
15:25 -13 °C -15.7 °C 34337.4 hPa ENE 47.6 km/h 47.6 km/h 71 % 0 mm 132.0 W/m2 CLR
15:30 -13 °C -15.7 °C 34337.4 hPa ENE 41.7 km/h 41.7 km/h 72 % 0 mm 169.0 W/m2 CLR
15:35 -12.9 °C -15.5 °C 34337.4 hPa ENE 44.7 km/h 44.7 km/h 72 % 0 mm 271.0 W/m2 CLR
15:40 -12.7 °C -15.5 °C 34337.4 hPa ENE 47.6 km/h 47.6 km/h 71 % 0 mm 186.0 W/m2 CLR
15:45 -12.6 °C -15.4 °C 34337.4 hPa ENE 57 km/h 57 km/h 71 % 0 mm 214.0 W/m2 CLR
15:50 -12.3 °C -15.6 °C 34337.4 hPa ENE 53.6 km/h 53.6 km/h 67 % 0 mm 353.0 W/m2 CLR
15:55 -12.3 °C -15.5 °C 34337.4 hPa ENE 56.6 km/h 56.6 km/h 67 % 0 mm 332.0 W/m2 CLR
16:00 -12.3 °C -15.4 °C 34347.6 hPa ENE 50.7 km/h 50.7 km/h 68 % 0 mm 360.0 W/m2 CLR
16:05 -12.4 °C -15.6 °C 34347.6 hPa ENE 51.8 km/h 51.8 km/h 67 % 0 mm 88.0 W/m2 CLR
16:10 -12.5 °C -16 °C 34361.1 hPa ENE 83.4 km/h 83.4 km/h 65 % 0 mm 76.0 W/m2 FEW
16:15 -12.5 °C -16 °C 34371.3 hPa ENE 62.6 km/h 62.6 km/h 65 % 0 mm 33.0 W/m2 FEW
16:20 -12.6 °C -15.9 °C 34371.3 hPa ENE 56.6 km/h 56.6 km/h 66 % 0 mm 56.0 W/m2 SCT
16:25 -12.7 °C -16.2 °C 34361.1 hPa ENE 71.5 km/h 71.5 km/h 64 % 0 mm 79.0 W/m2 SCT
16:30 -12.6 °C -16.2 °C 34361.1 hPa ENE 47.6 km/h 47.6 km/h 64 % 0 mm 276.0 W/m2 FEW
16:35 -12.4 °C -16.2 °C 34361.1 hPa ENE 50.7 km/h 50.7 km/h 63 % 0 mm 253.0 W/m2 CLR
16:40 -12.3 °C -16.1 °C 34371.3 hPa ENE 62.6 km/h 62.6 km/h 62 % 0 mm 237.0 W/m2 CLR
16:45 -12.2 °C -15.9 °C 34371.3 hPa ENE 68.6 km/h 68.6 km/h 63 % 0 mm 223.0 W/m2 CLR
16:51 -12.2 °C -16.1 °C 34371.3 hPa ENE 74.5 km/h 74.5 km/h 62 % 0 mm 211.0 W/m2 CLR
16:56 -12.3 °C -16.1 °C 34371.3 hPa ENE 62.6 km/h 62.6 km/h 63 % 0 mm 42.0 W/m2 CLR
17:01 -12.4 °C -16.1 °C 34371.3 hPa ENE 44.7 km/h 44.7 km/h 63 % 0 mm 174.0 W/m2 FEW
17:06 -12.4 °C -16.3 °C 34384.8 hPa ENE 68.6 km/h 68.6 km/h 62 % 0 mm 155.0 W/m2 FEW
17:11 -12.4 °C -16.3 °C 34395 hPa ENE 56.6 km/h 56.6 km/h 61 % 0 mm 51.0 W/m2 CLR
17:16 -12.4 °C -16.3 °C 34395 hPa ENE 68.6 km/h 68.6 km/h 61 % 0 mm 123.0 W/m2 FEW
17:21 -12.3 °C -16.4 °C 34405.1 hPa ENE 51.8 km/h 51.8 km/h 60 % 0 mm 135.0 W/m2 CLR
17:26 -12.3 °C -16.4 °C 34405.1 hPa ENE 38.8 km/h 38.8 km/h 60 % 0 mm 32.0 W/m2 CLR
17:31 -12.3 °C -16.4 °C 34405.1 hPa ENE 33.6 km/h 33.6 km/h 60 % 0 mm 32.0 W/m2 BKN
17:36 -12.4 °C -16.5 °C 34405.1 hPa ENE 53.6 km/h 53.6 km/h 60 % 0 mm 35.0 W/m2 BKN
17:41 -12.4 °C -16.4 °C 34405.1 hPa ENE 44.7 km/h 44.7 km/h 61 % 0 mm 62.0 W/m2 SCT
17:46 -12.4 °C -16.4 °C 34405.1 hPa ENE 41.4 km/h 41.4 km/h 61 % 0 mm 46.0 W/m2 SCT
17:51 -12.4 °C -16.6 °C 34405.1 hPa ENE 50.7 km/h 50.7 km/h 60 % 0 mm 42.0 W/m2 BKN
17:56 -12.4 °C -16.3 °C 34405.1 hPa ENE 29.8 km/h 29.8 km/h 62 % 0 mm 25.0 W/m2 BKN
18:01 -12.6 °C -16.4 °C 34405.1 hPa ENE 50.7 km/h 50.7 km/h 62 % 0 mm 14.0 W/m2 BKN
18:06 -12.6 °C -16.4 °C 34418.7 hPa ENE 23.8 km/h 23.8 km/h 62 % 0 mm 12.0 W/m2 BKN
18:11 -12.7 °C -16.3 °C 34418.7 hPa ENE 20.9 km/h 20.9 km/h 63 % 0 mm 11.0 W/m2 BKN
18:16 -12.7 °C -16.5 °C 34428.8 hPa ENE 23.8 km/h 23.8 km/h 62 % 0 mm 5.0 W/m2 OVC
18:21 -12.7 °C -16.3 °C 34428.8 hPa ENE 23.8 km/h 23.8 km/h 63 % 0 mm 0.0 W/m2 OVC
18:26 -12.7 °C -16.8 °C 34442.4 hPa ENE 50.7 km/h 50.7 km/h 60 % 0 mm 0.0 W/m2 OVC
18:31 -12.6 °C -16.8 °C 34442.4 hPa ENE 44.7 km/h 44.7 km/h 59 % 0 mm 0.0 W/m2 CLR
18:36 -12.6 °C -16.8 °C 34442.4 hPa ENE 29.8 km/h 29.8 km/h 59 % 0 mm 0.0 W/m2 CLR
18:41 -12.7 °C -17.1 °C 34452.6 hPa ENE 41.7 km/h 41.7 km/h 58 % 0 mm 0.0 W/m2 CLR
18:46 -12.7 °C -17 °C 34462.7 hPa ENE 50.7 km/h 50.7 km/h 59 % 0 mm 0.0 W/m2 CLR
18:51 -12.8 °C -17.1 °C 34476.3 hPa ENE 62.6 km/h 62.6 km/h 58 % 0 mm 0.0 W/m2 CLR
18:56 -12.7 °C -17.1 °C 34476.3 hPa ENE 53.6 km/h 53.6 km/h 58 % 0 mm 0.0 W/m2 CLR
19:01 -12.8 °C -17 °C 34476.3 hPa ENE 59.5 km/h 59.5 km/h 59 % 0 mm 0.0 W/m2 CLR
19:06 -12.8 °C -17 °C 34486.4 hPa ENE 50.7 km/h 50.7 km/h 59 % 0 mm 0.0 W/m2 CLR
19:11 -12.8 °C -16.9 °C 34486.4 hPa ENE 50.7 km/h 50.7 km/h 60 % 0 mm 0.0 W/m2 CLR
19:16 -12.9 °C -16.9 °C 34496.6 hPa ENE 56.6 km/h 56.6 km/h 60 % 0 mm 0.0 W/m2 CLR
19:21 -12.9 °C -16.9 °C 34510.1 hPa ENE 62.6 km/h 62.6 km/h 61 % 0 mm 0.0 W/m2 CLR
19:26 -13 °C -17 °C 34510.1 hPa ENE 71.5 km/h 71.5 km/h 61 % 0 mm 0.0 W/m2 CLR
19:31 -13.1 °C -16.9 °C 34520.3 hPa ENE 68.6 km/h 68.6 km/h 62 % 0 mm 0.0 W/m2 CLR
19:36 -13.1 °C -16.9 °C 34520.3 hPa ENE 68.6 km/h 68.6 km/h 62 % 0 mm 0.0 W/m2 CLR
19:41 -13.2 °C -16.8 °C 34520.3 hPa ENE 68.6 km/h 68.6 km/h 63 % 0 mm 0.0 W/m2 CLR
19:46 -13.2 °C -16.9 °C 34520.3 hPa ENE 47.6 km/h 47.6 km/h 63 % 0 mm 0.0 W/m2 CLR
19:51 -13.3 °C -16.8 °C 34520.3 hPa ENE 53.6 km/h 53.6 km/h 64 % 0 mm 0.0 W/m2 CLR
19:56 -13.3 °C -17 °C 34533.8 hPa ENE 80.5 km/h 80.5 km/h 63 % 0 mm 0.0 W/m2 CLR
20:01 -13.4 °C -16.9 °C 34533.8 hPa ENE 56.6 km/h 56.6 km/h 64 % 0 mm 0.0 W/m2 CLR
20:06 -13.4 °C -17.1 °C 34533.8 hPa ENE 80.5 km/h 80.5 km/h 63 % 0 mm 0.0 W/m2 CLR
20:11 -13.4 °C -17 °C 34544 hPa ENE 68.6 km/h 68.6 km/h 64 % 0 mm 0.0 W/m2 CLR
20:16 -13.4 °C -17 °C 34544 hPa ENE 92.4 km/h 92.4 km/h 64 % 0 mm 0.0 W/m2 CLR
20:21 -13.5 °C -16.9 °C 34544 hPa NNE 68.6 km/h 68.6 km/h 65 % 0 mm 0.0 W/m2 CLR
20:26 -13.6 °C -17 °C 34533.8 hPa NW 59.5 km/h 59.5 km/h 65 % 0 mm 0.0 W/m2 CLR
20:31 -13.7 °C -17.1 °C 34533.8 hPa NW 62.6 km/h 62.6 km/h 65 % 0 mm 0.0 W/m2 CLR
20:36 -13.6 °C -17.1 °C 34533.8 hPa NW 65.5 km/h 65.5 km/h 65 % 0 mm 0.0 W/m2 CLR
20:41 -13.7 °C -17.1 °C 34554.1 hPa NW 74.5 km/h 74.5 km/h 65 % 0 mm 0.0 W/m2 CLR
20:46 -13.7 °C -17.1 °C 34544 hPa NW 59.5 km/h 59.5 km/h 65 % 0 mm 0.0 W/m2 CLR
20:47 -13.7 °C -17.1 °C 34544 hPa NW 65.5 km/h 65.5 km/h 65 % 0 mm 0.0 W/m2 CLR
20:52 -13.7 °C -17.1 °C 34544 hPa NW 68.6 km/h 68.6 km/h 65 % 0 mm 0.0 W/m2 CLR
20:57 -13.7 °C -17.1 °C 34554.1 hPa NW 71.5 km/h 71.5 km/h 65 % 0 mm 0.0 W/m2 CLR
21:02 -13.7 °C -17.1 °C 34554.1 hPa NW 86.4 km/h 86.4 km/h 65 % 0 mm 0.0 W/m2 CLR
21:07 -13.7 °C -17.2 °C 34554.1 hPa NW 77.4 km/h 77.4 km/h 64 % 0 mm 0.0 W/m2 CLR
21:12 -13.6 °C -17.3 °C 34567.7 hPa NW 89.3 km/h 89.3 km/h 63 % 0 mm 0.0 W/m2 CLR
21:17 -13.5 °C -17.3 °C 34554.1 hPa NW 77.4 km/h 77.4 km/h 62 % 0 mm 0.0 W/m2
21:22 -13.5 °C -17.4 °C 34567.7 hPa NW 101.2 km/h 101.2 km/h 61 % 0 mm 0.0 W/m2 CLR
21:27 -13.5 °C -17.6 °C 34554.1 hPa NW 80.5 km/h 80.5 km/h 60 % 0 mm 0.0 W/m2 CLR
21:32 -13.6 °C -17.5 °C 34554.1 hPa NW 80.5 km/h 81.3 km/h 61 % 0 mm 0.0 W/m2 CLR
21:37 -13.6 °C -17.6 °C 34554.1 hPa NW 65.5 km/h 65.5 km/h 61 % 0 mm 0.0 W/m2 CLR
21:42 -13.7 °C -17.4 °C 34567.7 hPa NW 83.4 km/h 83.4 km/h 62 % 0 mm 0.0 W/m2 CLR
21:47 -13.7 °C -17.5 °C 34554.1 hPa NW 68.6 km/h 68.6 km/h 62 % 0 mm 0.0 W/m2 CLR
21:52 -13.8 °C -17.4 °C 34567.7 hPa NW 47.6 km/h 47.6 km/h 63 % 0 mm 0.0 W/m2 CLR
21:57 -13.8 °C -17.4 °C 34567.7 hPa NW 56.6 km/h 56.6 km/h 63 % 0 mm 0.0 W/m2 CLR
22:02 -13.8 °C -17.6 °C 34567.7 hPa NW 77.4 km/h 77.4 km/h 62 % 0 mm 0.0 W/m2 CLR
22:07 -13.8 °C -17.6 °C 34567.7 hPa NW 83.4 km/h 83.4 km/h 62 % 0 mm 0.0 W/m2 CLR
22:12 -13.7 °C -17.7 °C 34567.7 hPa NW 80.5 km/h 80.5 km/h 61 % 0 mm 0.0 W/m2 CLR
22:13 -13.7 °C -17.7 °C 34567.7 hPa NW 80.5 km/h 80.5 km/h 61 % 0 mm 0.0 W/m2 CLR
22:18 -13.7 °C -17.6 °C 34567.7 hPa NW 77.7 km/h 77.7 km/h 61 % 0 mm 0.0 W/m2 CLR
22:23 -13.7 °C -17.7 °C 34567.7 hPa NW 71.5 km/h 71.5 km/h 60 % 0 mm 0.0 W/m2 CLR
22:28 -13.7 °C -17.6 °C 34567.7 hPa NW 67.3 km/h 67.3 km/h 61 % 0 mm 0.0 W/m2 CLR
22:33 -13.7 °C -17.7 °C 34567.7 hPa NW 101.2 km/h 101.2 km/h 60 % 0 mm 0.0 W/m2 CLR
22:38 -13.7 °C -17.7 °C 34567.7 hPa NW 110.2 km/h 110.2 km/h 60 % 0 mm 0.0 W/m2
22:43 -13.6 °C -17.7 °C 34567.7 hPa NW 74.5 km/h 74.5 km/h 60 % 0 mm 0.0 W/m2
22:48 -13.6 °C -17.7 °C 34567.7 hPa NW 71.5 km/h 71.5 km/h 59 % 0 mm 0.0 W/m2 CLR
22:53 -13.6 °C -17.8 °C 34577.8 hPa NW 92.4 km/h 92.4 km/h 59 % 0 mm 0.0 W/m2 CLR
22:58 -13.6 °C -17.7 °C 34577.8 hPa NW 92.4 km/h 92.4 km/h 59 % 0 mm 0.0 W/m2 CLR
23:03 -13.7 °C -17.7 °C 34577.8 hPa NW 101.1 km/h 101.1 km/h 60 % 0 mm 0.0 W/m2 CLR
23:08 -13.7 °C -17.6 °C 34591.4 hPa NW 86.4 km/h 86.4 km/h 61 % 0 mm 0.0 W/m2 CLR
23:13 -13.8 °C -17.7 °C 34577.8 hPa NW 71.5 km/h 71.5 km/h 61 % 0 mm 0.0 W/m2 CLR
23:18 -13.8 °C -17.7 °C 34577.8 hPa NW 68.6 km/h 68.6 km/h 61 % 0 mm 0.0 W/m2 CLR
23:23 -13.8 °C -17.7 °C 34577.8 hPa NW 92.4 km/h 92.4 km/h 61 % 0 mm 0.0 W/m2 CLR
23:28 -13.8 °C -17.7 °C 34591.4 hPa NW 68.6 km/h 68.6 km/h 61 % 0 mm 0.0 W/m2 CLR
23:33 -13.8 °C -17.6 °C 34591.4 hPa NW 68.6 km/h 68.6 km/h 62 % 0 mm 0.0 W/m2 CLR
23:38 -13.8 °C -17.6 °C 34591.4 hPa NW 68.6 km/h 68.6 km/h 62 % 0 mm 0.0 W/m2 CLR
23:43 -13.8 °C -17.6 °C 34591.4 hPa NW 62.6 km/h 62.6 km/h 62 % 0 mm 0.0 W/m2 CLR
23:48 -13.8 °C -17.5 °C 34591.4 hPa NW 77.4 km/h 77.4 km/h 63 % 0 mm 0.0 W/m2 CLR
23:53 -13.8 °C -17.5 °C 34601.5 hPa NW 77.4 km/h 77.4 km/h 63 % 0 mm 0.0 W/m2 CLR
23:58 -13.8 °C -17.4 °C 34601.5 hPa NW 47.6 km/h 47.6 km/h 63 % 0 mm 0.0 W/m2 CLR
Lo Temps de Massalio
Compliments of Weather Underground - 1.25 mb